Aviston, Illinois
Current Conditions -  °F | °C
As of 9:58 PM on Friday 28 Nov 2014 (Local Time) from KBLV Reporting Station
Clear Clear  
Wind Chill:   Ceiling: Unl
Heat Index:   Visibility: 10mi
Dew Point:   Wind: 12mph
Humidity: 79%   Direction: 170°S
Pressure: 29.93"   Gusts: NA
Location:  38.61°N, 89.61°W
Report Text: KBLV 290358Z AUTO 17010KT 10SM CLR 05/02 A2993 RMK AO2 SLP141 T00520018
Loading
Personal Weather Stations






























Interactive Weather Map New forecast layout! Learn more

10-Day Weather Forecast

Advertisements
Track Severe Weather on mobile